Time;durP1;ratioP1;P1;durP2;ratioP2;P2;SDS_P1;SDS_P2;PMS_P1;PMS_P2;Temp;Humidity;BMP_temperature;BMP_pressure;BME280_temperature;BME280_humidity;BME280_pressure;Samples;Min_cycle;Max_cycle;Signal;HPM_P1;HPM_P2
2022/07/09 00:00:40;;;;;;;7.18;6.47;;;;;;;24.53;54.27;99134.41;5014004;28;20468;-89
2022/07/09 00:03:06;;;;;;;7.90;6.97;;;;;;;23.89;54.56;99057.81;5014866;28;20040;-89
2022/07/09 00:05:31;;;;;;;7.60;6.90;;;;;;;23.97;54.65;99038.34;5013676;28;20034;-89
2022/07/09 00:07:56;;;;;;;7.53;6.93;;;;;;;23.63;54.93;99013.94;5013599;28;20034;-89
2022/07/09 00:10:22;;;;;;;7.28;6.53;;;;;;;23.60;54.81;99003.72;5013533;28;20112;-89
2022/07/09 00:12:47;;;;;;;7.60;7.00;;;;;;;23.59;55.03;99017.47;5013401;28;20083;-88
2022/07/09 00:15:13;;;;;;;6.88;6.30;;;;;;;23.75;54.82;99062.97;5013520;28;20108;-88
2022/07/09 00:17:38;;;;;;;7.90;7.28;;;;;;;23.17;54.99;98958.59;5014491;28;20022;-89
2022/07/09 00:20:05;;;;;;;7.93;6.85;;;;;;;24.00;54.60;99099.81;5014738;28;20448;-89
2022/07/09 00:22:33;;;;;;;6.60;6.10;;;;;;;23.75;54.78;99081.03;5014473;28;20077;-89
2022/07/09 00:24:59;;;;;;;6.40;5.80;;;;;;;23.97;54.60;99130.03;5014328;28;20479;-89
2022/07/09 00:27:25;;;;;;;6.60;6.05;;;;;;;23.32;54.76;99015.94;5014445;28;20108;-90
2022/07/09 00:29:50;;;;;;;6.43;5.93;;;;;;;23.69;55.08;99099.09;5025767;28;20025;-88
2022/07/09 00:32:16;;;;;;;7.22;6.57;;;;;;;22.55;55.04;98948.97;5022235;28;20030;-88
2022/07/09 00:34:41;;;;;;;7.85;7.15;;;;;;;23.83;54.97;99102.06;5030357;28;20032;-89
2022/07/09 00:37:07;;;;;;;7.40;6.80;;;;;;;22.51;55.04;98892.22;5013966;28;20036;-89
2022/07/09 00:39:32;;;;;;;7.07;6.43;;;;;;;23.12;54.79;98987.16;5013572;28;20025;-89
2022/07/09 00:42:03;;;;;;;7.85;7.15;;;;;;;23.90;54.78;99105.25;5028792;28;20030;-89
2022/07/09 00:44:28;;;;;;;7.18;6.57;;;;;;;23.02;54.57;98994.44;5012523;28;20114;-89
2022/07/09 00:46:54;;;;;;;7.60;6.93;;;;;;;23.52;54.47;99043.88;5029272;28;20518;-90
2022/07/09 00:49:19;;;;;;;6.88;6.18;;;;;;;22.81;54.30;98935.25;5014202;28;20049;-88
2022/07/09 00:51:45;;;;;;;6.75;6.25;;;;;;;23.30;54.46;99020.78;5013594;28;20033;-89
2022/07/09 00:54:10;;;;;;;6.43;5.93;;;;;;;23.33;54.85;99030.19;5013009;28;20053;-88
2022/07/09 00:56:36;;;;;;;6.63;6.03;;;;;;;23.57;54.65;99066.25;5014938;28;20066;-89
2022/07/09 00:59:07;;;;;;;6.78;6.18;;;;;;;23.74;55.08;99106.38;5020932;28;20026;-89
2022/07/09 01:01:33;;;;;;;7.00;6.40;;;;;;;23.22;54.84;99063.63;5028430;28;20006;-88
2022/07/09 01:03:58;;;;;;;6.65;6.05;;;;;;;23.03;55.10;99014.88;5032966;28;20024;-89
2022/07/09 01:06:24;;;;;;;6.65;6.07;;;;;;;22.99;55.35;99008.44;5017476;28;20021;-89
2022/07/09 01:08:49;;;;;;;6.55;5.93;;;;;;;23.35;55.09;99050.41;5016893;28;20054;-89
2022/07/09 01:11:15;;;;;;;7.50;6.75;;;;;;;23.60;55.36;99100.75;5012381;28;20026;-89
2022/07/09 01:13:41;;;;;;;6.90;6.30;;;;;;;22.11;55.23;98848.13;5028676;28;20025;-89
2022/07/09 01:16:12;;;;;;;7.22;6.10;;;;;;;23.29;55.74;99062.25;5013239;28;20494;-89
2022/07/09 01:18:38;;;;;;;7.32;6.50;;;;;;;23.51;55.80;99106.94;5012486;28;20026;-89
2022/07/09 01:21:03;;;;;;;6.68;6.10;;;;;;;23.45;55.75;99093.47;5011996;28;20025;-89
2022/07/09 01:23:29;;;;;;;6.38;5.80;;;;;;;23.00;55.67;99018.94;5012004;28;20084;-89
2022/07/09 01:25:55;;;;;;;6.20;5.70;;;;;;;23.40;55.94;99090.81;5028449;28;20406;-89
2022/07/09 01:28:20;;;;;;;6.10;5.60;;;;;;;23.28;56.21;99092.97;5012008;28;20510;-89
2022/07/09 01:30:46;;;;;;;6.15;5.65;;;;;;;23.11;56.35;99070.91;5028565;28;20105;-89
2022/07/09 01:33:12;;;;;;;5.95;5.45;;;;;;;22.80;56.95;99033.22;5012123;28;20483;-89
2022/07/09 01:35:38;;;;;;;7.40;5.47;;;;;;;22.98;57.08;99074.13;5012317;28;20148;-89
2022/07/09 01:38:03;;;;;;;6.43;5.78;;;;;;;21.87;57.16;98900.78;5012645;28;20064;-89
2022/07/09 01:40:29;;;;;;;6.38;5.70;;;;;;;22.71;57.34;99029.44;5012270;28;20080;-89
2022/07/09 01:42:54;;;;;;;5.53;4.93;;;;;;;22.75;57.25;99027.81;5029494;28;20022;-90
2022/07/09 01:45:20;;;;;;;5.60;4.95;;;;;;;22.69;57.63;99034.28;5013396;28;20030;-89
2022/07/09 01:47:45;;;;;;;5.72;5.22;;;;;;;22.54;57.55;99001.19;5012569;28;20116;-89
2022/07/09 01:50:11;;;;;;;5.20;4.70;;;;;;;22.31;57.68;98968.34;5028894;28;20457;-89
2022/07/09 01:52:37;;;;;;;5.70;5.20;;;;;;;22.69;57.65;99034.28;5012590;28;20487;-89
2022/07/09 01:55:03;;;;;;;5.20;4.70;;;;;;;22.44;57.37;98978.59;5018273;28;20030;-87
2022/07/09 01:57:28;;;;;;;5.00;4.50;;;;;;;23.21;57.45;99100.53;5034281;28;20018;-88
2022/07/09 01:59:54;;;;;;;5.47;4.88;;;;;;;22.16;57.13;98969.13;5050376;28;20089;-88
2022/07/09 02:02:19;;;;;;;4.75;4.28;;;;;;;23.18;57.20;99090.31;5014473;28;20511;-89
2022/07/09 02:04:46;;;;;;;5.43;4.93;;;;;;;23.26;57.25;99108.59;5011419;28;20091;-90
2022/07/09 02:07:13;;;;;;;5.30;4.80;;;;;;;22.58;57.00;99002.25;5011536;28;20101;-89
2022/07/09 02:09:39;;;;;;;4.63;4.30;;;;;;;23.00;57.38;99063.91;5011514;28;20029;-89
2022/07/09 02:12:05;;;;;;;5.63;5.13;;;;;;;23.04;57.24;99073.09;5012748;28;20026;-89
2022/07/09 02:14:30;;;;;;;5.55;4.53;;;;;;;22.80;57.15;99045.88;5018866;28;20498;-89
2022/07/09 02:16:56;;;;;;;6.13;4.57;;;;;;;22.74;57.43;99055.81;5025041;28;20084;-88
2022/07/09 02:19:22;;;;;;;4.85;4.45;;;;;;;22.48;57.10;98992.31;5036302;28;20081;-89
2022/07/09 02:21:48;;;;;;;5.50;4.93;;;;;;;22.78;57.12;99048.81;5031628;28;20022;-89
2022/07/09 02:24:14;;;;;;;4.68;4.28;;;;;;;22.73;57.19;99039.94;5013685;28;20080;-89
2022/07/09 02:26:39;;;;;;;4.47;3.97;;;;;;;23.21;57.14;99099.72;5012189;28;20029;-90
2022/07/09 02:29:05;;;;;;;6.80;4.75;;;;;;;23.19;57.07;99097.31;5014119;28;20056;-89
2022/07/09 02:31:30;;;;;;;5.10;4.60;;;;;;;23.18;57.16;99094.88;5021101;28;20025;-89
2022/07/09 02:33:56;;;;;;;5.10;3.95;;;;;;;23.15;56.99;99098.91;5014686;28;20026;-88
2022/07/09 02:36:22;;;;;;;6.40;4.80;;;;;;;23.06;57.22;99093.28;5014872;28;20097;-89
2022/07/09 02:38:47;;;;;;;5.45;4.88;;;;;;;22.11;57.45;98966.44;5016050;28;20033;-89
2022/07/09 02:41:13;;;;;;;5.18;4.68;;;;;;;22.95;57.36;99094.31;5031387;28;20025;-89
2022/07/09 02:43:39;;;;;;;6.80;4.28;;;;;;;21.99;57.13;98973.09;5014769;28;20025;-89
2022/07/09 02:46:04;;;;;;;5.35;4.80;;;;;;;22.53;57.20;99048.81;5014791;28;20533;-89
2022/07/09 02:48:31;;;;;;;5.63;4.80;;;;;;;22.39;56.94;99036.94;5016223;28;20559;-90
2022/07/09 02:50:56;;;;;;;4.57;4.28;;;;;;;22.80;57.09;99119.34;5014730;28;20026;-89
2022/07/09 02:53:22;;;;;;;4.88;4.47;;;;;;;22.42;56.90;99041.78;5031318;28;20030;-89
2022/07/09 02:55:47;;;;;;;4.95;4.55;;;;;;;22.40;56.62;99038.56;5015757;28;20018;-89
2022/07/09 02:58:13;;;;;;;4.85;4.30;;;;;;;22.95;56.44;99107.78;5016158;28;20108;-89
2022/07/09 03:00:40;;;;;;;5.38;4.18;;;;;;;22.82;56.59;99101.06;5016180;28;20131;-89
2022/07/09 03:03:06;;;;;;;4.63;3.80;;;;;;;23.00;56.22;99131.22;5016091;28;20037;-89
2022/07/09 03:05:32;;;;;;;4.65;4.25;;;;;;;22.71;56.07;99094.03;5016114;28;20053;-89
2022/07/09 03:07:58;;;;;;;4.30;4.00;;;;;;;22.60;56.13;99057.41;5020478;28;20488;-89
2022/07/09 03:10:23;;;;;;;4.28;3.85;;;;;;;22.64;56.08;99071.13;5036890;28;20021;-89
2022/07/09 03:12:48;;;;;;;4.15;3.83;;;;;;;22.65;56.01;99054.72;5051551;28;20025;-88
2022/07/09 03:15:16;;;;;;;4.55;3.85;;;;;;;22.70;55.83;99070.06;5034395;28;20072;-89
2022/07/09 03:17:42;;;;;;;4.32;4.03;;;;;;;22.41;55.89;99034.81;5017169;28;20148;-89
2022/07/09 03:20:09;;;;;;;4.18;3.78;;;;;;;22.87;56.00;99113.72;5017276;28;20033;-88
2022/07/09 03:22:35;;;;;;;4.22;3.55;;;;;;;22.71;55.80;99080.56;5017411;28;20026;-89
2022/07/09 03:25:00;;;;;;;4.22;3.92;;;;;;;22.28;55.66;98985.00;5016914;28;20108;-89
2022/07/09 03:27:26;;;;;;;4.50;3.80;;;;;;;22.39;55.84;99015.44;5015528;28;20132;-89
2022/07/09 03:29:51;;;;;;;4.45;4.05;;;;;;;22.58;55.70;99066.84;5015976;28;20030;-89
2022/07/09 03:32:17;;;;;;;5.43;3.90;;;;;;;22.43;55.67;99044.22;5030386;28;20030;-89
2022/07/09 03:34:42;;;;;;;4.95;3.45;;;;;;;22.66;55.65;99061.72;5015104;28;20021;-89
2022/07/09 03:37:08;;;;;;;3.97;3.58;;;;;;;22.11;55.51;98955.69;5014876;28;20498;-89
2022/07/09 03:39:34;;;;;;;4.53;4.13;;;;;;;22.91;55.42;99089.75;5013716;28;20045;-89
2022/07/09 03:42:00;;;;;;;5.75;4.55;;;;;;;22.16;55.98;98982.56;5014384;28;20036;-89
2022/07/09 03:44:25;;;;;;;7.35;4.47;;;;;;;22.46;56.18;99035.63;5013901;28;20034;-89
2022/07/09 03:46:50;;;;;;;5.28;4.18;;;;;;;21.94;56.16;98935.47;5014984;28;20048;-88
2022/07/09 03:49:16;;;;;;;4.38;3.97;;;;;;;22.56;56.64;99042.06;5013618;28;20503;-89
2022/07/09 03:51:43;;;;;;;4.85;4.35;;;;;;;22.61;56.77;99066.28;5014812;28;20026;-88
2022/07/09 03:54:08;;;;;;;5.28;4.80;;;;;;;22.73;56.97;99094.56;5014905;28;20026;-89
2022/07/09 03:56:34;;;;;;;5.10;4.70;;;;;;;22.96;57.18;99122.88;5030109;28;20114;-89
2022/07/09 03:58:59;;;;;;;5.00;4.60;;;;;;;22.12;57.27;98984.19;5013689;28;20045;-88
2022/07/09 04:01:24;;;;;;;6.32;5.35;;;;;;;21.78;57.56;98948.88;5013614;28;20156;-89
2022/07/09 04:03:50;;;;;;;6.43;4.72;;;;;;;22.27;57.43;99006.78;5014804;28;20415;-89
2022/07/09 04:06:15;;;;;;;5.75;5.18;;;;;;;22.43;57.72;99048.78;5036490;28;20483;-89
2022/07/09 04:08:41;;;;;;;6.80;5.50;;;;;;;22.84;57.71;99103.47;5046715;28;20032;-89
2022/07/09 04:11:06;;;;;;;6.32;5.63;;;;;;;22.58;57.72;99051.50;5034387;28;20037;-89
2022/07/09 04:13:32;;;;;;;5.60;5.10;;;;;;;22.88;57.93;99123.41;5018563;28;20030;-90
2022/07/09 04:15:58;;;;;;;5.63;5.20;;;;;;;22.09;58.03;98982.03;5028285;28;20032;-88
2022/07/09 04:18:23;;;;;;;6.32;5.72;;;;;;;22.75;57.96;99084.34;5035701;28;20061;-89
2022/07/09 04:20:48;;;;;;;5.68;5.18;;;;;;;22.37;57.86;99001.44;5013908;28;20033;-89
2022/07/09 04:23:14;;;;;;;6.88;5.78;;;;;;;22.70;57.98;99118.50;5014487;28;20105;-89
2022/07/09 04:25:39;;;;;;;6.57;5.97;;;;;;;21.82;57.62;98939.22;5013390;28;20417;-89
2022/07/09 04:28:05;;;;;;;5.95;5.47;;;;;;;22.77;57.72;99092.94;5012972;28;20029;-89
2022/07/09 04:30:30;;;;;;;7.07;5.85;;;;;;;23.09;57.69;99140.41;5013283;28;20038;-89
2022/07/09 04:32:56;;;;;;;5.88;5.28;;;;;;;23.04;57.65;99126.94;5014394;28;20088;-89
2022/07/09 04:35:21;;;;;;;5.88;5.28;;;;;;;22.67;57.61;99044.50;5029437;28;20026;-89
2022/07/09 04:37:47;;;;;;;10.65;5.80;;;;;;;22.93;57.66;99099.19;5013031;28;20034;-90
2022/07/09 04:40:12;;;;;;;6.63;5.20;;;;;;;23.13;57.44;99123.44;5014274;28;20030;-89
2022/07/09 04:42:38;;;;;;;5.75;5.25;;;;;;;23.13;57.55;99120.75;5012965;28;20032;-89
2022/07/09 04:45:03;;;;;;;7.20;4.85;;;;;;;22.45;57.34;99044.75;5029426;28;20029;-89
2022/07/09 04:47:29;;;;;;;5.75;5.22;;;;;;;22.31;57.12;98967.56;5012965;28;20034;-89
2022/07/09 04:49:54;;;;;;;6.13;4.75;;;;;;;22.65;57.14;99027.00;5012968;28;20080;-89
2022/07/09 04:52:20;;;;;;;5.65;5.13;;;;;;;23.28;57.20;99133.38;5012292;28;20033;-88
2022/07/09 04:54:47;;;;;;;5.68;5.07;;;;;;;23.29;57.25;99126.91;5012529;28;20022;-89
2022/07/09 04:57:13;;;;;;;7.03;5.10;;;;;;;22.52;57.08;99002.25;5013426;28;20479;-89
2022/07/09 04:59:38;;;;;;;6.25;5.40;;;;;;;23.30;56.99;99125.84;5029125;28;20029;-89
2022/07/09 05:02:04;;;;;;;7.22;5.18;;;;;;;23.38;57.05;99114.50;5029098;28;20521;-89
2022/07/09 05:04:30;;;;;;;6.25;5.18;;;;;;;23.58;56.57;99137.13;5029046;28;20032;-89
2022/07/09 05:06:56;;;;;;;5.15;4.63;;;;;;;22.76;56.63;98994.44;5012455;28;20026;-89
2022/07/09 05:09:21;;;;;;;7.47;5.45;;;;;;;23.40;56.64;99080.03;5012591;28;20137;-89
2022/07/09 05:11:47;;;;;;;4.80;4.38;;;;;;;23.26;56.23;99049.34;5013263;28;20026;-89
2022/07/09 05:14:13;;;;;;;5.03;4.53;;;;;;;23.79;55.91;99127.94;5013697;28;20025;-89
2022/07/09 05:16:44;;;;;;;7.80;4.93;;;;;;;23.29;55.55;99046.09;5012227;28;20037;-90
2022/07/09 05:19:12;;;;;;;5.80;4.55;;;;;;;23.69;55.46;99117.16;5013442;28;20521;-89
2022/07/09 05:21:41;;;;;;;5.00;4.60;;;;;;;23.03;55.28;99001.44;5028781;28;20098;-89
2022/07/09 05:24:07;;;;;;;8.27;4.82;;;;;;;23.46;55.07;99070.84;5012603;28;20033;-88
2022/07/09 05:26:34;;;;;;;6.07;4.35;;;;;;;22.26;54.93;98929.88;5012126;28;20030;-89
2022/07/09 05:28:59;;;;;;;5.32;4.82;;;;;;;23.02;54.64;99014.09;5028295;28;20057;-89
2022/07/09 05:31:25;;;;;;;9.07;5.05;;;;;;;23.54;54.61;99084.84;5011958;28;20061;-89
2022/07/09 05:33:51;;;;;;;7.45;5.22;;;;;;;23.18;54.14;99006.81;5028461;28;20030;-89
2022/07/09 05:36:17;;;;;;;6.38;5.00;;;;;;;23.40;53.96;99025.34;5013045;28;20499;-89
2022/07/09 05:38:44;;;;;;;4.78;4.07;;;;;;;23.96;53.47;99109.53;5011723;28;20026;-89
2022/07/09 05:41:10;;;;;;;6.32;4.40;;;;;;;23.93;53.03;99090.41;5012929;28;20482;-89
2022/07/09 05:43:36;;;;;;;4.10;3.75;;;;;;;23.51;52.82;99008.03;5012667;28;20038;-88
2022/07/09 05:46:01;;;;;;;4.55;4.10;;;;;;;23.87;52.84;99059.97;5027755;28;20095;-89
2022/07/09 05:48:27;;;;;;;5.35;4.20;;;;;;;24.14;52.82;99086.53;5012632;28;20030;-88
2022/07/09 05:50:52;;;;;;;4.88;3.72;;;;;;;23.86;52.54;99052.97;5028151;28;20040;-89
2022/07/09 05:53:18;;;;;;;4.68;3.97;;;;;;;23.84;52.66;99063.22;5027777;28;20139;-89
2022/07/09 05:55:44;;;;;;;4.38;3.92;;;;;;;24.26;52.55;99122.09;5011541;28;20073;-89
2022/07/09 05:58:10;;;;;;;4.40;4.00;;;;;;;24.26;52.38;99111.28;5016579;28;20026;-89
2022/07/09 06:00:35;;;;;;;4.68;3.75;;;;;;;23.72;52.60;99047.34;5028573;28;20037;-88
2022/07/09 06:03:00;;;;;;;4.50;4.10;;;;;;;23.05;52.48;98969.69;5030327;28;20475;-89
2022/07/09 06:05:26;;;;;;;4.00;3.60;;;;;;;23.84;52.46;99084.78;5018506;28;20108;-89
2022/07/09 06:07:51;;;;;;;7.63;4.65;;;;;;;23.50;52.58;99016.41;5015841;28;20030;-88
2022/07/09 06:10:17;;;;;;;8.27;5.65;;;;;;;23.37;52.43;99005.13;5032208;28;20022;-89
2022/07/09 06:12:43;;;;;;;5.55;4.40;;;;;;;24.22;52.24;99117.53;5015540;28;20065;-88
2022/07/09 06:15:10;;;;;;;7.05;3.95;;;;;;;24.20;52.23;99115.09;5033166;28;20033;-88
2022/07/09 06:17:36;;;;;;;6.60;5.00;;;;;;;24.03;52.15;99098.47;5015801;28;20034;-89
2022/07/09 06:20:02;;;;;;;7.57;5.85;;;;;;;24.40;52.06;99125.00;5015537;28;20084;-89
2022/07/09 06:22:27;;;;;;;6.40;4.70;;;;;;;24.29;51.85;99102.66;5032022;28;20028;-89
2022/07/09 06:24:52;;;;;;;8.40;4.43;;;;;;;23.66;51.29;98958.69;5016514;28;20110;-89
2022/07/09 06:27:18;;;;;;;4.43;3.90;;;;;;;23.93;51.38;99031.09;5015180;28;20053;-89
2022/07/09 06:29:43;;;;;;;7.22;3.63;;;;;;;24.16;51.48;99049.31;5016508;28;20538;-89
2022/07/09 06:32:08;;;;;;;4.30;3.60;;;;;;;24.28;51.55;99065.97;5015536;28;20017;-89
2022/07/09 06:34:34;;;;;;;8.10;4.60;;;;;;;24.18;51.32;99032.84;5016562;28;20026;-89
2022/07/09 06:36:59;;;;;;;5.55;4.60;;;;;;;23.93;51.45;98986.06;5015207;28;20014;-89
2022/07/09 06:39:46;;;;;;;4.32;3.90;;;;;;;24.26;51.36;99019.56;5016200;28;20026;-89
2022/07/09 06:42:14;;;;;;;5.28;4.05;;;;;;;24.01;51.35;98963.91;5016575;28;20061;-89
2022/07/09 06:44:40;;;;;;;6.10;4.38;;;;;;;24.82;51.38;99104.78;5016214;28;20025;-88
2022/07/09 06:47:06;;;;;;;6.05;4.20;;;;;;;24.88;51.31;99100.94;5016267;28;20022;-88
2022/07/09 06:49:32;;;;;;;4.65;4.13;;;;;;;24.50;50.76;99035.06;5014944;28;20022;-89
2022/07/09 06:51:58;;;;;;;5.70;4.32;;;;;;;24.96;50.83;99097.66;5014666;28;20113;-89
2022/07/09 06:54:23;;;;;;;5.75;4.03;;;;;;;24.18;50.54;98968.09;5014831;28;20644;-89
2022/07/09 06:56:49;;;;;;;5.15;4.65;;;;;;;24.57;50.59;99039.09;5030664;28;20046;-89
2022/07/09 06:59:16;;;;;;;5.90;4.47;;;;;;;24.95;50.53;99090.63;5013633;28;20418;-89
2022/07/09 07:01:41;;;;;;;4.10;3.63;;;;;;;24.40;50.18;99001.69;5014763;28;20010;-89
2022/07/09 07:04:06;;;;;;;7.32;4.57;;;;;;;24.56;50.09;99012.38;5029996;28;20028;-88
2022/07/09 07:06:32;;;;;;;4.60;4.20;;;;;;;24.74;50.41;99065.69;5014351;28;20018;-88
2022/07/09 07:08:58;;;;;;;6.05;4.40;;;;;;;25.06;50.78;99105.69;5013126;28;20469;-89
2022/07/09 07:11:24;;;;;;;5.75;4.85;;;;;;;24.82;50.89;99066.97;5013642;28;20026;-89
2022/07/09 07:13:49;;;;;;;5.47;4.40;;;;;;;24.00;50.73;98935.31;5014770;28;20057;-88
2022/07/09 07:16:15;;;;;;;5.68;4.85;;;;;;;23.64;51.11;98880.00;5013288;28;20022;-89
2022/07/09 07:18:40;;;;;;;5.47;4.80;;;;;;;24.38;51.74;99013.84;5029864;28;20029;-89
2022/07/09 07:21:05;;;;;;;6.00;5.40;;;;;;;25.01;51.76;99109.25;5014385;28;20076;-89
2022/07/09 07:23:34;;;;;;;5.30;4.68;;;;;;;24.39;51.60;99015.47;5013258;28;20030;-88
2022/07/09 07:26:00;;;;;;;5.60;5.07;;;;;;;24.52;51.46;99020.22;5014370;28;20582;-89
2022/07/09 07:28:26;;;;;;;6.18;4.22;;;;;;;24.96;51.28;99078.75;5014456;28;20026;-89
2022/07/09 07:30:51;;;;;;;6.13;4.55;;;;;;;24.82;50.96;99072.38;5014422;28;20096;-89
2022/07/09 07:33:16;;;;;;;6.47;4.88;;;;;;;25.10;50.66;99114.03;5029870;28;20026;-89
2022/07/09 07:35:44;;;;;;;6.55;5.50;;;;;;;25.05;51.00;99106.78;5014773;28;20018;-89
2022/07/09 07:38:09;;;;;;;5.90;5.40;;;;;;;24.91;50.92;99097.69;5014618;28;20026;-88
2022/07/09 07:40:36;;;;;;;8.73;6.13;;;;;;;24.66;51.31;99052.78;5014760;28;20026;-89
2022/07/09 07:43:02;;;;;;;6.35;5.70;;;;;;;24.09;51.38;98987.56;5012941;28;20022;-89
2022/07/09 07:45:27;;;;;;;6.75;5.00;;;;;;;24.62;50.97;99054.44;5029318;28;20026;-89
2022/07/09 07:47:54;;;;;;;5.10;4.60;;;;;;;24.58;51.10;99021.00;5013491;28;20029;-88
2022/07/09 07:50:20;;;;;;;4.72;4.32;;;;;;;24.60;50.71;99030.44;5034851;28;20038;-89
2022/07/09 07:52:46;;;;;;;6.22;4.38;;;;;;;24.15;50.54;98918.22;5015578;28;20462;-88
2022/07/09 07:55:11;;;;;;;4.30;3.90;;;;;;;25.29;50.82;99104.97;5014009;28;20030;-88
2022/07/09 07:57:37;;;;;;;7.55;4.90;;;;;;;24.95;50.48;99050.13;4974188;28;1146274;-89
2022/07/09 08:00:04;;;;;;;6.65;4.93;;;;;;;25.49;50.42;99117.47;5022739;28;20425;-88
2022/07/09 08:02:30;;;;;;;6.70;4.60;;;;;;;24.60;50.66;98999.94;5028678;28;20029;-88
2022/07/09 08:04:56;;;;;;;6.38;4.30;;;;;;;25.06;50.32;99058.97;5034242;28;20032;-88
2022/07/09 08:07:21;;;;;;;5.88;4.38;;;;;;;24.85;50.40;99039.41;5021913;28;20034;-89
2022/07/09 08:09:47;;;;;;;5.65;4.88;;;;;;;24.95;49.96;99039.31;5014457;28;20442;-89
2022/07/09 08:12:12;;;;;;;5.07;4.32;;;;;;;24.85;49.97;99024.00;5014935;28;20053;-89
2022/07/09 08:14:38;;;;;;;6.80;4.40;;;;;;;25.41;49.85;99090.25;5029540;28;20525;-89
2022/07/09 08:17:03;;;;;;;5.13;4.28;;;;;;;25.08;49.30;99064.88;5029672;28;20092;-89
2022/07/09 08:19:29;;;;;;;4.80;4.15;;;;;;;25.03;49.18;99019.81;5012977;28;20029;-89
2022/07/09 08:21:54;;;;;;;5.53;4.50;;;;;;;25.71;48.24;99102.66;5013910;28;20029;-88
2022/07/09 08:24:20;;;;;;;5.07;4.43;;;;;;;25.86;48.22;99124.13;5014017;28;20113;-89
2022/07/09 08:26:45;;;;;;;5.53;4.28;;;;;;;25.70;47.76;99095.66;5013127;28;20030;-88
2022/07/09 08:29:10;;;;;;;3.95;3.60;;;;;;;26.06;47.54;99142.03;5013781;28;20465;-88
2022/07/09 08:31:36;;;;;;;4.95;3.88;;;;;;;25.58;47.18;99068.97;5013970;28;20092;-89
2022/07/09 08:34:01;;;;;;;4.82;4.30;;;;;;;25.66;47.47;99060.28;5014037;28;20028;-88
2022/07/09 08:36:27;;;;;;;7.32;4.22;;;;;;;25.20;47.43;98993.16;5012704;28;20029;-89
2022/07/09 08:38:52;;;;;;;7.55;4.35;;;;;;;25.88;46.76;99065.94;5028879;28;20438;-88
2022/07/09 08:41:19;;;;;;;4.88;4.28;;;;;;;25.81;46.60;99041.16;5029322;28;20030;-88
2022/07/09 08:43:51;;;;;;;4.65;3.85;;;;;;;26.24;46.39;99119.63;5013925;28;20036;-88
2022/07/09 08:46:18;;;;;;;6.10;4.22;;;;;;;25.69;46.52;99015.63;5013779;28;20071;-88
2022/07/09 08:48:44;;;;;;;8.40;3.83;;;;;;;26.23;46.73;99118.00;5012548;28;20061;-88
2022/07/09 08:51:10;;;;;;;4.82;3.70;;;;;;;25.74;46.78;99034.50;5013677;28;20037;-88
2022/07/09 08:53:40;;;;;;;3.95;3.65;;;;;;;26.21;46.80;99129.13;5012628;28;20498;-89
2022/07/09 08:56:07;;;;;;;5.13;3.85;;;;;;;25.69;47.04;99039.97;5012310;28;20049;-88
2022/07/09 08:58:32;;;;;;;5.53;3.97;;;;;;;26.28;47.72;99148.50;5028824;28;20041;-89
2022/07/09 09:00:58;;;;;;;5.13;4.63;;;;;;;25.72;48.72;99047.50;5012572;28;20030;-90
2022/07/09 09:03:24;;;;;;;5.72;4.95;;;;;;;25.96;48.99;99095.06;5013667;28;20561;-90
2022/07/09 09:06:07;;;;;;;4.22;3.88;;;;;;;26.11;49.19;99123.03;5012753;28;20026;-90
2022/07/09 09:08:45;;;;;;;5.18;4.50;;;;;;;26.05;50.12;99130.41;5012682;28;20502;-90
2022/07/09 09:11:22;;;;;;;4.68;4.28;;;;;;;25.00;50.50;98990.69;5012757;28;20072;-91
2022/07/09 09:13:49;;;;;;;6.70;4.70;;;;;;;23.89;51.26;98866.38;5012888;28;20125;-92
2022/07/09 09:16:16;;;;;;;7.22;5.13;;;;;;;25.25;52.30;99084.16;5015156;28;20025;-92
2022/07/09 09:18:44;;;;;;;5.70;4.70;;;;;;;24.90;52.72;99050.16;5014052;28;20026;-92
2022/07/09 09:21:11;;;;;;;7.80;5.00;;;;;;;24.20;53.19;98991.00;5013972;28;20046;-91
2022/07/09 09:23:43;;;;;;;5.88;5.35;;;;;;;25.17;54.03;99120.72;5013718;28;20064;-91
2022/07/09 09:26:17;;;;;;;6.35;5.75;;;;;;;24.77;54.54;99081.31;5013310;28;20120;-90
2022/07/09 09:28:51;;;;;;;6.15;5.55;;;;;;;24.34;55.33;99029.78;5012861;28;20029;-90
2022/07/09 09:31:28;;;;;;;6.13;5.57;;;;;;;24.10;55.38;99012.66;5014445;28;20507;-90
2022/07/09 09:34:18;;;;;;;6.15;5.65;;;;;;;24.99;56.26;99137.63;5013024;28;20013;-90
2022/07/09 09:36:46;;;;;;;6.53;5.80;;;;;;;24.99;55.55;99135.72;5018602;28;20034;-90
2022/07/09 09:39:14;;;;;;;5.45;5.00;;;;;;;24.69;55.88;99095.44;5036039;28;20022;-90
2022/07/09 09:41:41;;;;;;;6.50;5.88;;;;;;;24.51;56.40;99113.06;5038030;28;20036;-89
2022/07/09 09:44:09;;;;;;;6.82;6.13;;;;;;;24.11;57.01;99022.34;5030015;28;20081;-90
2022/07/09 09:46:37;;;;;;;5.95;5.45;;;;;;;24.19;57.04;99053.34;5020185;28;20022;-90
2022/07/09 09:49:07;;;;;;;8.20;6.03;;;;;;;24.80;57.46;99160.97;5047325;28;20026;-92
2022/07/09 09:51:56;;;;;;;8.38;6.22;;;;;;;24.73;57.82;99160.47;5048222;28;20038;-92
2022/07/09 09:54:22;;;;;;;8.98;6.72;;;;;;;24.65;59.21;99151.88;5029217;28;20046;-92
2022/07/09 09:56:49;;;;;;;7.93;7.13;;;;;;;24.27;59.43;99096.75;5023537;28;20046;-91
2022/07/09 09:59:16;;;;;;;8.13;6.65;;;;;;;24.09;60.03;99090.06;5029249;28;20041;-91
2022/07/09 10:01:42;;;;;;;8.13;6.63;;;;;;;24.40;60.68;99152.81;5012776;28;20029;-91
2022/07/09 10:04:14;;;;;;;8.60;7.32;;;;;;;24.19;60.99;99142.34;5013263;28;20030;-90
2022/07/09 10:06:41;;;;;;;9.52;8.02;;;;;;;23.74;61.45;99039.78;5012562;28;20036;-90
2022/07/09 10:09:08;;;;;;;9.73;8.32;;;;;;;23.82;61.29;99053.78;5012327;28;20122;-90
2022/07/09 10:11:48;;;;;;;9.77;7.90;;;;;;;23.65;61.64;99029.84;5012466;28;20030;-90
2022/07/09 10:14:23;;;;;;;7.95;6.90;;;;;;;24.35;61.82;99119.63;5012094;28;20419;-89
2022/07/09 10:16:48;;;;;;;11.50;7.55;;;;;;;23.56;62.00;99002.66;5012670;28;20034;-89
2022/07/09 10:19:34;;;;;;;8.77;7.97;;;;;;;24.32;62.45;99121.00;5013602;28;20037;-89
2022/07/09 10:22:00;;;;;;;8.57;7.78;;;;;;;24.30;62.00;99122.38;5013358;28;20487;-89
2022/07/09 10:24:27;;;;;;;9.30;7.82;;;;;;;23.86;61.77;99066.44;5013727;28;20041;-89
2022/07/09 10:27:09;;;;;;;8.13;6.80;;;;;;;23.58;61.71;99015.88;5012411;28;20045;-89
2022/07/09 10:29:37;;;;;;;10.43;7.13;;;;;;;23.49;61.84;98990.53;5012406;28;20030;-89
2022/07/09 10:32:03;;;;;;;6.65;6.05;;;;;;;24.23;61.42;99059.78;5012585;28;20030;-88
2022/07/09 10:34:55;;;;;;;7.10;6.35;;;;;;;24.23;60.75;99063.28;5012453;28;20549;-89
2022/07/09 10:37:42;;;;;;;6.68;6.18;;;;;;;24.68;60.37;99118.91;5012239;28;20517;-89
2022/07/09 10:40:18;;;;;;;8.23;5.95;;;;;;;24.62;59.99;99095.75;5013069;28;20040;-89
2022/07/09 10:42:56;;;;;;;7.30;5.18;;;;;;;24.82;58.91;99116.38;5011959;28;20029;-89
2022/07/09 10:45:23;;;;;;;6.30;5.43;;;;;;;24.50;59.47;99076.38;5012021;28;20053;-88
2022/07/09 10:47:55;;;;;;;6.25;5.65;;;;;;;23.99;59.58;98990.34;5012453;28;20570;-89
2022/07/09 10:50:21;;;;;;;5.88;5.28;;;;;;;24.71;59.58;99075.16;5030487;28;20022;-89
2022/07/09 10:52:48;;;;;;;7.70;6.10;;;;;;;25.12;59.34;99111.84;5016280;28;20029;-89
2022/07/09 10:55:16;;;;;;;6.00;5.50;;;;;;;25.20;58.34;99108.53;5014886;28;20022;-89
2022/07/09 10:57:41;;;;;;;6.97;5.22;;;;;;;25.12;58.53;99068.63;5031248;28;20523;-88
2022/07/09 11:00:07;;;;;;;5.47;5.00;;;;;;;24.66;57.81;98988.81;5014778;28;20053;-89
2022/07/09 11:02:33;;;;;;;5.63;4.75;;;;;;;25.10;57.15;99046.50;5037130;28;20018;-87
2022/07/09 11:04:58;;;;;;;6.10;5.50;;;;;;;23.47;57.55;98799.50;5039061;28;20025;-87
2022/07/09 11:07:25;;;;;;;5.95;4.97;;;;;;;25.36;57.32;99077.59;5052182;28;20037;-87
2022/07/09 11:09:52;;;;;;;5.88;5.43;;;;;;;25.69;57.11;99119.19;5022621;28;20030;-89
2022/07/09 11:12:22;;;;;;;5.82;4.80;;;;;;;25.75;56.39;99109.91;5017670;28;20034;-89
2022/07/09 11:14:49;;;;;;;5.43;4.93;;;;;;;25.33;56.46;99030.34;5031868;28;20025;-89
2022/07/09 11:17:16;;;;;;;8.18;5.78;;;;;;;25.15;55.89;98987.81;5015395;28;20080;-88
2022/07/09 11:19:42;;;;;;;7.10;5.63;;;;;;;25.83;55.29;99073.31;5015031;28;20030;-89
2022/07/09 11:22:07;;;;;;;5.97;5.38;;;;;;;26.34;54.79;99103.28;5015005;28;20026;-89
2022/07/09 11:24:33;;;;;;;5.97;5.25;;;;;;;26.22;54.64;99056.84;5016046;28;20084;-88
2022/07/09 11:27:06;;;;;;;5.55;5.05;;;;;;;26.28;53.89;99045.66;5016439;28;20045;-88
2022/07/09 11:29:32;;;;;;;5.07;4.68;;;;;;;25.37;53.23;98883.81;5017826;28;20034;-89
2022/07/09 11:31:57;;;;;;;6.88;5.25;;;;;;;26.85;53.00;99054.56;5022537;28;20034;-89